This is the latest recevied weather packets stored in our database for station/object OK3MS-5. If no packets are shown the sender has not sent any weather packets the latest 10 day(s).
| Time | Temp. | Humidity | Pressure | Rain* | Wind** | Luminosity | Snow |
|---|---|---|---|---|---|---|---|
| 1777725304 | 24.44° C | 26% | 1018.8 hPa | 0 mm | - | 700 W/m² | - |
| 1777725004 | 23.89° C | 27% | 1018.9 hPa | 0 mm | - | 708 W/m² | - |
| 1777724704 | 23.33° C | 27% | 1019 hPa | 0 mm | - | 715 W/m² | - |
| 1777724403 | 22.78° C | 27% | 1019.4 hPa | 0 mm | - | 722 W/m² | - |
| 1777724103 | 22.22° C | 29% | 1019.6 hPa | 0 mm | - | 725 W/m² | - |
| 1777723803 | 22.78° C | 28% | 1019.4 hPa | 0 mm | - | 731 W/m² | - |
| 1777723506 | 22.22° C | 29% | 1019.5 hPa | 0 mm | - | 732 W/m² | - |
| 1777723203 | 22.22° C | 29% | 1019.6 hPa | 0 mm | - | 737 W/m² | - |
| 1777722903 | 22.22° C | 28% | 1019.7 hPa | 0 mm | - | 739 W/m² | - |
| 1777722602 | 22.22° C | 29% | 1019.7 hPa | 0 mm | - | 744 W/m² | - |
| 1777722004 | 22.22° C | 25% | 1019.9 hPa | 0 mm | - | 746 W/m² | - |
| 1777721703 | 22.78° C | 26% | 1019.9 hPa | 0 mm | - | 747 W/m² | - |
| 1777721402 | 23.33° C | 27% | 1019.8 hPa | 0 mm | - | 750 W/m² | - |
| 1777721106 | 22.22° C | 29% | 1020.1 hPa | 0 mm | - | 754 W/m² | - |
| 1777720802 | 21.67° C | 32% | 1020.3 hPa | 0 mm | - | 752 W/m² | - |
| 1777720502 | 21.67° C | 32% | 1020.4 hPa | 0 mm | - | 750 W/m² | - |
| 1777720208 | 21.11° C | 31% | 1020.5 hPa | 0 mm | - | 752 W/m² | - |
| 1777719905 | 21.11° C | 31% | 1020.6 hPa | 0 mm | - | 751 W/m² | - |
| 1777719604 | 20.56° C | 33% | 1020.7 hPa | 0 mm | - | 747 W/m² | - |
| 1777719304 | 20.56° C | 32% | 1020.8 hPa | 0 mm | - | 748 W/m² | - |
| 1777719004 | 20.56° C | 32% | 1020.8 hPa | 0 mm | - | 749 W/m² | - |
| 1777718706 | 21.67° C | 32% | 1020.6 hPa | 0 mm | - | 750 W/m² | - |
| 1777718404 | 21.67° C | 33% | 1020.7 hPa | 0 mm | - | 749 W/m² | - |
| 1777718104 | 21.67° C | 32% | 1020.7 hPa | 0 mm | - | 747 W/m² | - |
| 1777717804 | 21.11° C | 33% | 1021.1 hPa | 0 mm | - | 742 W/m² | - |
* Rain latest hour (hover to see other rain measurements)
** Current wind speed in m/s (hover to see current wind gust speed)